PUA2603 SABE-SUMU
Flight info
| Callsign | PUA2603 |
|---|---|
| Flight time | 0h 27m |
| Altitude | 15000 |
| Route | DORVO8 DORVO A305 TOKAM |
| Aircraft | A20N/M-SDE2E3FGHIRWXY/LB1 |
Departure
| Time | 2026-04-21 04:16 |
|---|---|
| Airport | Aeroparque Jorge Newbery (SABE) |
Arrival
| Time | 2026-04-21 04:43 |
|---|---|
| Airport | Carrasco General Cesáreo L. Berisso International Airport (SUMU) |
| Time | Latitude | Longitude | Altitude | Speed | Heading |
|---|---|---|---|---|---|
| 2026-04-21 03:58 | -34.55677 | -58.41484 | 28 ft | 0 kts | 13° |
| 2026-04-21 04:07 | -34.55678 | -58.41484 | 28 ft | 0 kts | 13° |
| 2026-04-21 04:07 | -34.55679 | -58.41484 | 28 ft | 1 kts | 13° |
| 2026-04-21 04:08 | -34.55689 | -58.41488 | 28 ft | 2 kts | 6° |
| 2026-04-21 04:08 | -34.55705 | -58.41487 | 28 ft | 2 kts | 352° |
| 2026-04-21 04:08 | -34.55719 | -58.41483 | 28 ft | 2 kts | 338° |
| 2026-04-21 04:08 | -34.55732 | -58.41475 | 28 ft | 2 kts | 326° |
| 2026-04-21 04:09 | -34.55743 | -58.41463 | 28 ft | 2 kts | 312° |
| 2026-04-21 04:09 | -34.55751 | -58.41451 | 28 ft | 0 kts | 301° |
| 2026-04-21 04:09 | -34.55754 | -58.41444 | 28 ft | 0 kts | 299° |
| 2026-04-21 04:10 | -34.55754 | -58.41445 | 28 ft | 1 kts | 299° |
| 2026-04-21 04:11 | -34.55743 | -58.41469 | 28 ft | 4 kts | 298° |
| 2026-04-21 04:11 | -34.55725 | -58.41511 | 28 ft | 6 kts | 295° |
| 2026-04-21 04:11 | -34.55745 | -58.41564 | 27 ft | 8 kts | 211° |
| 2026-04-21 04:11 | -34.55781 | -58.41620 | 27 ft | 9 kts | 276° |
| 2026-04-21 04:12 | -34.55756 | -58.41700 | 27 ft | 11 kts | 297° |
| 2026-04-21 04:12 | -34.55713 | -58.41787 | 26 ft | 12 kts | 302° |
| 2026-04-21 04:12 | -34.55661 | -58.41886 | 25 ft | 14 kts | 304° |
| 2026-04-21 04:12 | -34.55603 | -58.41989 | 25 ft | 15 kts | 304° |
| 2026-04-21 04:13 | -34.55539 | -58.42095 | 25 ft | 15 kts | 307° |
| 2026-04-21 04:13 | -34.55472 | -58.42203 | 26 ft | 15 kts | 307° |
| 2026-04-21 04:13 | -34.55416 | -58.42292 | 27 ft | 11 kts | 307° |
| 2026-04-21 04:13 | -34.55374 | -58.42363 | 26 ft | 6 kts | 300° |
| 2026-04-21 04:14 | -34.55373 | -58.42366 | 26 ft | 0 kts | 298° |
| 2026-04-21 04:14 | -34.55369 | -58.42375 | 27 ft | 3 kts | 295° |
| 2026-04-21 04:15 | -34.55359 | -58.42427 | 27 ft | 9 kts | 276° |
| 2026-04-21 04:15 | -34.55379 | -58.42503 | 28 ft | 10 kts | 219° |
| 2026-04-21 04:15 | -34.55407 | -58.42503 | 28 ft | 0 kts | 127° |
| 2026-04-21 04:15 | -34.55418 | -58.42484 | 28 ft | 17 kts | 124° |
| 2026-04-21 04:16 | -34.55654 | -58.42058 | 26 ft | 99 kts | 122° |
| 2026-04-21 04:16 | -34.56166 | -58.41127 | 47 ft | 160 kts | 122° |
| 2026-04-21 04:16 | -34.56804 | -58.39964 | 620 ft | 169 kts | 121° |
| 2026-04-21 04:16 | -34.57397 | -58.38801 | 1514 ft | 162 kts | 108° |
| 2026-04-21 04:17 | -34.57404 | -58.37530 | 2209 ft | 158 kts | 63° |
| 2026-04-21 04:17 | -34.56626 | -58.36543 | 2756 ft | 175 kts | 32° |
| 2026-04-21 04:17 | -34.55506 | -58.35827 | 3316 ft | 192 kts | 31° |
| 2026-04-21 04:17 | -34.54290 | -58.34976 | 3778 ft | 215 kts | 31° |
| 2026-04-21 04:18 | -34.52999 | -58.33958 | 4340 ft | 233 kts | 42° |
| 2026-04-21 04:18 | -34.52081 | -58.32253 | 4890 ft | 254 kts | 71° |
| 2026-04-21 04:18 | -34.51981 | -58.30100 | 5618 ft | 269 kts | 98° |
| 2026-04-21 04:18 | -34.52524 | -58.27908 | 6510 ft | 275 kts | 107° |
| 2026-04-21 04:19 | -34.53167 | -58.25731 | 7322 ft | 281 kts | 107° |
| 2026-04-21 04:19 | -34.53798 | -58.23463 | 8127 ft | 288 kts | 106° |
| 2026-04-21 04:19 | -34.54414 | -58.21141 | 8945 ft | 294 kts | 106° |
| 2026-04-21 04:19 | -34.55031 | -58.18761 | 9688 ft | 300 kts | 106° |
| 2026-04-21 04:20 | -34.55650 | -58.16339 | 10476 ft | 306 kts | 106° |
| 2026-04-21 04:20 | -34.56288 | -58.13819 | 10949 ft | 322 kts | 106° |
| 2026-04-21 04:20 | -34.56963 | -58.11134 | 11353 ft | 341 kts | 106° |
| 2026-04-21 04:20 | -34.57657 | -58.08362 | 11852 ft | 353 kts | 106° |
| 2026-04-21 04:21 | -34.58375 | -58.05482 | 12564 ft | 358 kts | 106° |
| 2026-04-21 04:21 | -34.59093 | -58.02602 | 13280 ft | 363 kts | 106° |
| 2026-04-21 04:21 | -34.59829 | -57.99645 | 13973 ft | 368 kts | 105° |
| 2026-04-21 04:21 | -34.60569 | -57.96668 | 14601 ft | 373 kts | 105° |
| 2026-04-21 04:22 | -34.61317 | -57.93655 | 14950 ft | 375 kts | 105° |
| 2026-04-21 04:22 | -34.62070 | -57.90614 | 15027 ft | 377 kts | 105° |
| 2026-04-21 04:22 | -34.62816 | -57.87594 | 15030 ft | 377 kts | 105° |
| 2026-04-21 04:22 | -34.63566 | -57.84555 | 15031 ft | 377 kts | 105° |
| 2026-04-21 04:23 | -34.64328 | -57.81465 | 15040 ft | 377 kts | 105° |
| 2026-04-21 04:23 | -34.65079 | -57.78421 | 15033 ft | 377 kts | 105° |
| 2026-04-21 04:23 | -34.65819 | -57.75409 | 15028 ft | 378 kts | 105° |
| 2026-04-21 04:23 | -34.66579 | -57.72317 | 15031 ft | 378 kts | 105° |
| 2026-04-21 04:24 | -34.67331 | -57.69254 | 15038 ft | 379 kts | 105° |
| 2026-04-21 04:24 | -34.68078 | -57.66206 | 15042 ft | 378 kts | 105° |
| 2026-04-21 04:24 | -34.68827 | -57.63148 | 15038 ft | 378 kts | 105° |
| 2026-04-21 04:24 | -34.69573 | -57.60094 | 15037 ft | 378 kts | 105° |
| 2026-04-21 04:25 | -34.70320 | -57.57031 | 15036 ft | 378 kts | 105° |
| 2026-04-21 04:25 | -34.71048 | -57.53983 | 15036 ft | 378 kts | 103° |
| 2026-04-21 04:25 | -34.71619 | -57.50896 | 15042 ft | 377 kts | 98° |
| 2026-04-21 04:25 | -34.71988 | -57.47739 | 15034 ft | 376 kts | 95° |
| 2026-04-21 04:26 | -34.72255 | -57.44609 | 15036 ft | 376 kts | 94° |
| 2026-04-21 04:26 | -34.72510 | -57.41432 | 15038 ft | 376 kts | 94° |
| 2026-04-21 04:26 | -34.72763 | -57.38286 | 15034 ft | 376 kts | 94° |
| 2026-04-21 04:26 | -34.73019 | -57.35136 | 15037 ft | 377 kts | 94° |
| 2026-04-21 04:27 | -34.73278 | -57.31973 | 15038 ft | 377 kts | 94° |
| 2026-04-21 04:27 | -34.73542 | -57.28781 | 15039 ft | 377 kts | 94° |
| 2026-04-21 04:27 | -34.73803 | -57.25624 | 15039 ft | 377 kts | 94° |
| 2026-04-21 04:27 | -34.74069 | -57.22419 | 15041 ft | 378 kts | 94° |
| 2026-04-21 04:28 | -34.74328 | -57.19271 | 15045 ft | 378 kts | 94° |
| 2026-04-21 04:28 | -34.74591 | -57.16080 | 15046 ft | 378 kts | 94° |
| 2026-04-21 04:28 | -34.74850 | -57.12906 | 15042 ft | 379 kts | 94° |
| 2026-04-21 04:28 | -34.75108 | -57.09740 | 15046 ft | 379 kts | 94° |
| 2026-04-21 04:29 | -34.75368 | -57.06546 | 15039 ft | 378 kts | 94° |
| 2026-04-21 04:29 | -34.75625 | -57.03357 | 15042 ft | 378 kts | 93° |
| 2026-04-21 04:29 | -34.75882 | -57.00172 | 14802 ft | 379 kts | 94° |
| 2026-04-21 04:29 | -34.76136 | -56.97000 | 14393 ft | 375 kts | 94° |
| 2026-04-21 04:30 | -34.76385 | -56.93869 | 13968 ft | 373 kts | 94° |
| 2026-04-21 04:30 | -34.76636 | -56.90712 | 13525 ft | 370 kts | 94° |
| 2026-04-21 04:30 | -34.76882 | -56.87611 | 13075 ft | 368 kts | 94° |
| 2026-04-21 04:30 | -34.77126 | -56.84547 | 12641 ft | 365 kts | 94° |
| 2026-04-21 04:31 | -34.77364 | -56.81524 | 12205 ft | 362 kts | 94° |
| 2026-04-21 04:31 | -34.77604 | -56.78489 | 11787 ft | 358 kts | 94° |
| 2026-04-21 04:31 | -34.77842 | -56.75463 | 11366 ft | 355 kts | 94° |
| 2026-04-21 04:31 | -34.78026 | -56.72505 | 10935 ft | 351 kts | 90° |
| 2026-04-21 04:32 | -34.78024 | -56.69569 | 10566 ft | 345 kts | 86° |
| 2026-04-21 04:32 | -34.77869 | -56.66689 | 10269 ft | 333 kts | 84° |
| 2026-04-21 04:32 | -34.77695 | -56.64003 | 10170 ft | 312 kts | 84° |
| 2026-04-21 04:32 | -34.77527 | -56.61456 | 10065 ft | 295 kts | 83° |
| 2026-04-21 04:33 | -34.77363 | -56.58972 | 9902 ft | 290 kts | 83° |
| 2026-04-21 04:33 | -34.77202 | -56.56526 | 9561 ft | 289 kts | 83° |
| 2026-04-21 04:33 | -34.77045 | -56.54119 | 9239 ft | 287 kts | 84° |
| 2026-04-21 04:33 | -34.76890 | -56.51726 | 8931 ft | 285 kts | 83° |
| 2026-04-21 04:34 | -34.76733 | -56.49315 | 8610 ft | 283 kts | 83° |
| 2026-04-21 04:34 | -34.76579 | -56.46940 | 8223 ft | 283 kts | 83° |
| 2026-04-21 04:34 | -34.76423 | -56.44566 | 7782 ft | 284 kts | 83° |
| 2026-04-21 04:34 | -34.76267 | -56.42169 | 7424 ft | 282 kts | 83° |
| 2026-04-21 04:35 | -34.76113 | -56.39803 | 7079 ft | 279 kts | 83° |
| 2026-04-21 04:35 | -34.75961 | -56.37465 | 6737 ft | 277 kts | 83° |
| 2026-04-21 04:35 | -34.75810 | -56.35168 | 6396 ft | 274 kts | 82° |
| 2026-04-21 04:35 | -34.75658 | -56.32869 | 6049 ft | 271 kts | 82° |
| 2026-04-21 04:36 | -34.75506 | -56.30592 | 5709 ft | 269 kts | 82° |
| 2026-04-21 04:36 | -34.75357 | -56.28350 | 5381 ft | 266 kts | 82° |
| 2026-04-21 04:36 | -34.75208 | -56.26116 | 5050 ft | 263 kts | 82° |
| 2026-04-21 04:36 | -34.75059 | -56.23923 | 4705 ft | 260 kts | 81° |
| 2026-04-21 04:37 | -34.74537 | -56.21866 | 4325 ft | 253 kts | 54° |
| 2026-04-21 04:37 | -34.73311 | -56.20390 | 4003 ft | 249 kts | 37° |
| 2026-04-21 04:37 | -34.71942 | -56.19107 | 3663 ft | 246 kts | 39° |
| 2026-04-21 04:37 | -34.70658 | -56.17725 | 3313 ft | 245 kts | 44° |
| 2026-04-21 04:38 | -34.69510 | -56.16222 | 2973 ft | 243 kts | 50° |
| 2026-04-21 04:38 | -34.68493 | -56.14591 | 2621 ft | 242 kts | 55° |
| 2026-04-21 04:38 | -34.67622 | -56.12864 | 2384 ft | 235 kts | 60° |
| 2026-04-21 04:38 | -34.66927 | -56.11142 | 2369 ft | 220 kts | 65° |
| 2026-04-21 04:39 | -34.66388 | -56.09446 | 2365 ft | 205 kts | 70° |
| 2026-04-21 04:39 | -34.65987 | -56.07791 | 2369 ft | 203 kts | 74° |
| 2026-04-21 04:39 | -34.65899 | -56.06102 | 2363 ft | 209 kts | 100° |
| 2026-04-21 04:39 | -34.66655 | -56.04562 | 2367 ft | 220 kts | 135° |
| 2026-04-21 04:40 | -34.67989 | -56.03660 | 2371 ft | 216 kts | 156° |
| 2026-04-21 04:40 | -34.69444 | -56.03297 | 2428 ft | 206 kts | 169° |
| 2026-04-21 04:40 | -34.70842 | -56.03212 | 2231 ft | 200 kts | 174° |
| 2026-04-21 04:40 | -34.72215 | -56.03215 | 1962 ft | 187 kts | 175° |
| 2026-04-21 04:41 | -34.73464 | -56.03219 | 1732 ft | 173 kts | 174° |
| 2026-04-21 04:41 | -34.74630 | -56.03208 | 1488 ft | 160 kts | 174° |
| 2026-04-21 04:41 | -34.75699 | -56.03192 | 1267 ft | 147 kts | 174° |
| 2026-04-21 04:41 | -34.76715 | -56.03174 | 1092 ft | 145 kts | 174° |
| 2026-04-21 04:42 | -34.77720 | -56.03159 | 915 ft | 143 kts | 175° |
| 2026-04-21 04:42 | -34.78726 | -56.03146 | 730 ft | 141 kts | 176° |
| 2026-04-21 04:42 | -34.79695 | -56.03134 | 544 ft | 139 kts | 176° |
| 2026-04-21 04:42 | -34.80671 | -56.03120 | 356 ft | 137 kts | 177° |
| 2026-04-21 04:43 | -34.81617 | -56.03108 | 178 ft | 135 kts | 178° |
| 2026-04-21 04:43 | -34.82551 | -56.03094 | 47 ft | 123 kts | 179° |
| 2026-04-21 04:43 | -34.83220 | -56.03085 | 64 ft | 75 kts | 179° |
| 2026-04-21 04:43 | -34.83589 | -56.03081 | 66 ft | 32 kts | 179° |
| 2026-04-21 04:44 | -34.83759 | -56.03028 | 66 ft | 22 kts | 107° |
| 2026-04-21 04:44 | -34.83706 | -56.02867 | 69 ft | 19 kts | 52° |
| 2026-04-21 04:44 | -34.83629 | -56.02740 | 71 ft | 18 kts | 55° |
| 2026-04-21 04:44 | -34.83557 | -56.02616 | 73 ft | 17 kts | 51° |
| 2026-04-21 04:45 | -34.83488 | -56.02511 | 77 ft | 14 kts | 52° |
| 2026-04-21 04:45 | -34.83427 | -56.02411 | 78 ft | 16 kts | 54° |
| 2026-04-21 04:45 | -34.83354 | -56.02291 | 78 ft | 17 kts | 54° |
| 2026-04-21 04:45 | -34.83281 | -56.02167 | 78 ft | 17 kts | 54° |
| 2026-04-21 04:46 | -34.83212 | -56.02049 | 80 ft | 16 kts | 65° |
| 2026-04-21 04:46 | -34.83253 | -56.01939 | 82 ft | 14 kts | 141° |
| 2026-04-21 04:46 | -34.83333 | -56.01866 | 83 ft | 14 kts | 143° |
| 2026-04-21 04:46 | -34.83414 | -56.01793 | 83 ft | 15 kts | 143° |
| 2026-04-21 04:47 | -34.83492 | -56.01703 | 81 ft | 14 kts | 141° |
| 2026-04-21 04:47 | -34.83551 | -56.01651 | 79 ft | 2 kts | 143° |